sensor_id;sensor_type;location;lat;lon;timestamp;pressure;altitude;pressure_sealevel;temperature;humidity
68628;BME280;55611;48.602;9.490;2022-09-09T00:00:15;96570;;;21.2;56
68628;BME280;55611;48.602;9.490;2022-09-09T00:02:49;96570;;;21.2;56
68628;BME280;55611;48.602;9.490;2022-09-09T00:05:19;96570;;;21.2;56
68628;BME280;55611;48.602;9.490;2022-09-09T00:07:47;96570;;;21.2;56
68628;BME280;55611;48.602;9.490;2022-09-09T00:10:19;96570;;;21.2;56
68628;BME280;55611;48.602;9.490;2022-09-09T00:12:50;96570;;;21.2;56
68628;BME280;55611;48.602;9.490;2022-09-09T00:15:18;96560;;;21.2;56
68628;BME280;55611;48.602;9.490;2022-09-09T00:17:51;96560;;;21.2;56
68628;BME280;55611;48.602;9.490;2022-09-09T00:20:20;96560;;;21.1;56
68628;BME280;55611;48.602;9.490;2022-09-09T00:22:52;96560;;;21.1;56
68628;BME280;55611;48.602;9.490;2022-09-09T00:25:54;96560;;;21.1;56
68628;BME280;55611;48.602;9.490;2022-09-09T00:27:50;96550;;;21.1;56
68628;BME280;55611;48.602;9.490;2022-09-09T00:30:22;96550;;;21.2;56
68628;BME280;55611;48.602;9.490;2022-09-09T00:32:55;96550;;;21.2;56
68628;BME280;55611;48.602;9.490;2022-09-09T00:35:23;96540;;;21.1;56
68628;BME280;55611;48.602;9.490;2022-09-09T00:37:53;96550;;;21.1;55.5
68628;BME280;55611;48.602;9.490;2022-09-09T00:40:26;96550;;;21;56
68628;BME280;55611;48.602;9.490;2022-09-09T00:42:57;96550;;;21;56
68628;BME280;55611;48.602;9.490;2022-09-09T00:45:31;96550;;;21;56
68628;BME280;55611;48.602;9.490;2022-09-09T00:47:54;96540;;;21;56
68628;BME280;55611;48.602;9.490;2022-09-09T00:50:57;96540;;;21.1;56
68628;BME280;55611;48.602;9.490;2022-09-09T00:52:59;96540;;;21.1;56
68628;BME280;55611;48.602;9.490;2022-09-09T00:55:36;96540;;;21.1;56
68628;BME280;55611;48.602;9.490;2022-09-09T00:57:56;96550;;;21.1;56
68628;BME280;55611;48.602;9.490;2022-09-09T01:00:29;96550;;;21.1;56
68628;BME280;55611;48.602;9.490;2022-09-09T01:03:02;96550;;;21.1;56
68628;BME280;55611;48.602;9.490;2022-09-09T01:05:30;96560;;;21.1;56
68628;BME280;55611;48.602;9.490;2022-09-09T01:08:00;96560;;;21;56
68628;BME280;55611;48.602;9.490;2022-09-09T01:10:36;96550;;;20.9;56
68628;BME280;55611;48.602;9.490;2022-09-09T01:13:00;96550;;;20.9;56
68628;BME280;55611;48.602;9.490;2022-09-09T01:15:30;96550;;;20.9;56
68628;BME280;55611;48.602;9.490;2022-09-09T01:18:08;96540;;;20.9;56
68628;BME280;55611;48.602;9.490;2022-09-09T01:20:36;96550;;;20.9;56
68628;BME280;55611;48.602;9.490;2022-09-09T01:23:05;96550;;;20.9;56
68628;BME280;55611;48.602;9.490;2022-09-09T01:28:03;96550;;;20.8;56
68628;BME280;55611;48.602;9.490;2022-09-09T01:30:33;96550;;;20.8;56
68628;BME280;55611;48.602;9.490;2022-09-09T01:33:03;96560;;;20.4;56
68628;BME280;55611;48.602;9.490;2022-09-09T01:35:40;96560;;;19.7;56
68628;BME280;55611;48.602;9.490;2022-09-09T01:38:05;96560;;;19.2;56
68628;BME280;55611;48.602;9.490;2022-09-09T01:40:35;96560;;;18.7;56
68628;BME280;55611;48.602;9.490;2022-09-09T01:43:06;96560;;;18.4;56
68628;BME280;55611;48.602;9.490;2022-09-09T01:45:36;96560;;;18.2;56
68628;BME280;55611;48.602;9.490;2022-09-09T01:48:07;96560;;;18.1;56
68628;BME280;55611;48.602;9.490;2022-09-09T01:50:37;96560;;;18.1;56
68628;BME280;55611;48.602;9.490;2022-09-09T01:53:08;96560;;;18.1;56
68628;BME280;55611;48.602;9.490;2022-09-09T01:55:40;96570;;;18.1;56
68628;BME280;55611;48.602;9.490;2022-09-09T01:58:12;96570;;;18.1;56
68628;BME280;55611;48.602;9.490;2022-09-09T02:00:41;96570;;;18;56
68628;BME280;55611;48.602;9.490;2022-09-09T02:03:26;96570;;;18;56
68628;BME280;55611;48.602;9.490;2022-09-09T02:05:41;96570;;;17.9;56
68628;BME280;55611;48.602;9.490;2022-09-09T02:08:13;96570;;;17.9;56
68628;BME280;55611;48.602;9.490;2022-09-09T02:10:45;96570;;;17.8;56
68628;BME280;55611;48.602;9.490;2022-09-09T02:13:13;96570;;;17.8;56
68628;BME280;55611;48.602;9.490;2022-09-09T02:15:47;96580;;;17.8;56
68628;BME280;55611;48.602;9.490;2022-09-09T02:18:13;96580;;;17.8;56
68628;BME280;55611;48.602;9.490;2022-09-09T02:20:43;96590;;;17.7;56
68628;BME280;55611;48.602;9.490;2022-09-09T02:23:14;96590;;;17.7;56
68628;BME280;55611;48.602;9.490;2022-09-09T02:25:44;96580;;;17.7;56
68628;BME280;55611;48.602;9.490;2022-09-09T02:28:15;96580;;;17.7;56
68628;BME280;55611;48.602;9.490;2022-09-09T02:30:45;96570;;;17.7;56.5
68628;BME280;55611;48.602;9.490;2022-09-09T02:33:16;96580;;;17.7;56.5
68628;BME280;55611;48.602;9.490;2022-09-09T02:35:46;96570;;;17.7;56.5
68628;BME280;55611;48.602;9.490;2022-09-09T02:38:17;96570;;;17.7;56.5
68628;BME280;55611;48.602;9.490;2022-09-09T02:40:48;96580;;;17.7;56.5
68628;BME280;55611;48.602;9.490;2022-09-09T02:43:18;96570;;;17.7;56.5
68628;BME280;55611;48.602;9.490;2022-09-09T02:48:21;96560;;;17.9;56.5
68628;BME280;55611;48.602;9.490;2022-09-09T02:50:53;96550;;;17.9;56.5
68628;BME280;55611;48.602;9.490;2022-09-09T02:53:24;96550;;;18;56.5
68628;BME280;55611;48.602;9.490;2022-09-09T02:55:54;96560;;;18.1;56.5
68628;BME280;55611;48.602;9.490;2022-09-09T02:58:21;96570;;;18.2;57
68628;BME280;55611;48.602;9.490;2022-09-09T03:00:52;96580;;;18.2;57
68628;BME280;55611;48.602;9.490;2022-09-09T03:03:22;96590;;;18.2;57
68628;BME280;55611;48.602;9.490;2022-09-09T03:05:53;96580;;;18.1;57
68628;BME280;55611;48.602;9.490;2022-09-09T03:08:23;96590;;;17.9;57
68628;BME280;55611;48.602;9.490;2022-09-09T03:10:54;96580;;;17.9;57
68628;BME280;55611;48.602;9.490;2022-09-09T03:13:24;96580;;;17.9;57
68628;BME280;55611;48.602;9.490;2022-09-09T03:15:55;96570;;;17.9;57
68628;BME280;55611;48.602;9.490;2022-09-09T03:18:25;96570;;;18;56.5
68628;BME280;55611;48.602;9.490;2022-09-09T03:20:56;96580;;;18;56.5
68628;BME280;55611;48.602;9.490;2022-09-09T03:23:26;96580;;;18;56.5
68628;BME280;55611;48.602;9.490;2022-09-09T03:25:57;96580;;;18;57
68628;BME280;55611;48.602;9.490;2022-09-09T03:28:27;96590;;;18.1;57
68628;BME280;55611;48.602;9.490;2022-09-09T03:30:59;96590;;;18.1;57
68628;BME280;55611;48.602;9.490;2022-09-09T03:33:28;96580;;;18.2;56.5
68628;BME280;55611;48.602;9.490;2022-09-09T03:35:59;96570;;;18.2;56.5
68628;BME280;55611;48.602;9.490;2022-09-09T03:38:29;96580;;;18.2;57
68628;BME280;55611;48.602;9.490;2022-09-09T03:41:00;96590;;;18.3;57
68628;BME280;55611;48.602;9.490;2022-09-09T03:43:30;96590;;;18.3;57
68628;BME280;55611;48.602;9.490;2022-09-09T03:46:01;96590;;;18.5;57
68628;BME280;55611;48.602;9.490;2022-09-09T03:48:31;96600;;;18.5;57
68628;BME280;55611;48.602;9.490;2022-09-09T03:51:02;96600;;;18.4;57
68628;BME280;55611;48.602;9.490;2022-09-09T03:53:32;96600;;;18.4;57
68628;BME280;55611;48.602;9.490;2022-09-09T03:56:03;96600;;;18.5;57
68628;BME280;55611;48.602;9.490;2022-09-09T03:58:34;96600;;;18.4;57
68628;BME280;55611;48.602;9.490;2022-09-09T04:01:05;96600;;;18.4;57
68628;BME280;55611;48.602;9.490;2022-09-09T04:03:34;96600;;;18.5;57
68628;BME280;55611;48.602;9.490;2022-09-09T04:06:05;96590;;;18.5;57
68628;BME280;55611;48.602;9.490;2022-09-09T04:08:36;96590;;;18.5;57
68628;BME280;55611;48.602;9.490;2022-09-09T04:11:06;96580;;;18.6;57
68628;BME280;55611;48.602;9.490;2022-09-09T04:13:37;96580;;;18.7;57
68628;BME280;55611;48.602;9.490;2022-09-09T04:16:08;96570;;;18.8;57
68628;BME280;55611;48.602;9.490;2022-09-09T04:18:38;96570;;;19;57
68628;BME280;55611;48.602;9.490;2022-09-09T04:21:09;96570;;;19.2;57
68628;BME280;55611;48.602;9.490;2022-09-09T04:23:39;96570;;;19.3;57
68628;BME280;55611;48.602;9.490;2022-09-09T04:26:09;96580;;;19.4;57
68628;BME280;55611;48.602;9.490;2022-09-09T04:28:40;96580;;;19.4;57
68628;BME280;55611;48.602;9.490;2022-09-09T04:31:14;96570;;;19.4;57
68628;BME280;55611;48.602;9.490;2022-09-09T04:33:41;96570;;;19.5;57
68628;BME280;55611;48.602;9.490;2022-09-09T04:36:11;96570;;;19.4;57
68628;BME280;55611;48.602;9.490;2022-09-09T04:38:42;96570;;;19.4;57
68628;BME280;55611;48.602;9.490;2022-09-09T04:41:12;96570;;;19.4;57
68628;BME280;55611;48.602;9.490;2022-09-09T04:43:43;96570;;;19.4;57
68628;BME280;55611;48.602;9.490;2022-09-09T04:46:13;96570;;;19.4;57
68628;BME280;55611;48.602;9.490;2022-09-09T04:48:44;96570;;;19.4;57
68628;BME280;55611;48.602;9.490;2022-09-09T04:51:14;96570;;;19.4;57
68628;BME280;55611;48.602;9.490;2022-09-09T04:53:45;96580;;;19.4;57
68628;BME280;55611;48.602;9.490;2022-09-09T04:56:16;96580;;;19.4;57
68628;BME280;55611;48.602;9.490;2022-09-09T04:58:46;96580;;;19.4;57
68628;BME280;55611;48.602;9.490;2022-09-09T05:01:17;96590;;;19.3;57
68628;BME280;55611;48.602;9.490;2022-09-09T05:03:47;96590;;;19.3;57
68628;BME280;55611;48.602;9.490;2022-09-09T05:06:18;96590;;;19.3;57
68628;BME280;55611;48.602;9.490;2022-09-09T05:08:48;96590;;;19.3;57
68628;BME280;55611;48.602;9.490;2022-09-09T05:11:19;96590;;;19.3;57
68628;BME280;55611;48.602;9.490;2022-09-09T05:13:49;96590;;;19.3;57
68628;BME280;55611;48.602;9.490;2022-09-09T05:16:20;96590;;;19.3;57
68628;BME280;55611;48.602;9.490;2022-09-09T05:18:50;96590;;;19.3;57
68628;BME280;55611;48.602;9.490;2022-09-09T05:21:22;96600;;;19.3;57
68628;BME280;55611;48.602;9.490;2022-09-09T05:23:51;96600;;;19.3;57
68628;BME280;55611;48.602;9.490;2022-09-09T05:26:22;96590;;;19.3;57
68628;BME280;55611;48.602;9.490;2022-09-09T05:28:52;96590;;;19.4;57
68628;BME280;55611;48.602;9.490;2022-09-09T05:31:23;96590;;;19.4;57
68628;BME280;55611;48.602;9.490;2022-09-09T05:33:53;96590;;;19.4;57
68628;BME280;55611;48.602;9.490;2022-09-09T05:36:23;96580;;;19.4;57
68628;BME280;55611;48.602;9.490;2022-09-09T05:38:54;96580;;;19.4;57
68628;BME280;55611;48.602;9.490;2022-09-09T05:41:25;96590;;;19.5;57
68628;BME280;55611;48.602;9.490;2022-09-09T05:43:55;96590;;;19.5;57
68628;BME280;55611;48.602;9.490;2022-09-09T05:46:26;96600;;;19.6;57
68628;BME280;55611;48.602;9.490;2022-09-09T05:48:56;96600;;;19.7;57
68628;BME280;55611;48.602;9.490;2022-09-09T05:51:27;96600;;;19.8;57
68628;BME280;55611;48.602;9.490;2022-09-09T05:53:57;96600;;;19.9;57
68628;BME280;55611;48.602;9.490;2022-09-09T05:56:28;96610;;;19.9;57
68628;BME280;55611;48.602;9.490;2022-09-09T05:58:58;96610;;;20;57
68628;BME280;55611;48.602;9.490;2022-09-09T06:01:30;96610;;;20;57
68628;BME280;55611;48.602;9.490;2022-09-09T06:03:59;96610;;;20.1;57
68628;BME280;55611;48.602;9.490;2022-09-09T06:06:30;96610;;;20.1;57
68628;BME280;55611;48.602;9.490;2022-09-09T06:09:00;96610;;;20.1;57
68628;BME280;55611;48.602;9.490;2022-09-09T06:11:31;96610;;;20.1;57
68628;BME280;55611;48.602;9.490;2022-09-09T06:14:01;96600;;;20.1;57
68628;BME280;55611;48.602;9.490;2022-09-09T06:16:32;96600;;;20.1;57
68628;BME280;55611;48.602;9.490;2022-09-09T06:19:02;96610;;;20.2;57
68628;BME280;55611;48.602;9.490;2022-09-09T06:21:33;96610;;;20.3;57
68628;BME280;55611;48.602;9.490;2022-09-09T06:24:04;96620;;;20.5;57
68628;BME280;55611;48.602;9.490;2022-09-09T06:26:35;96610;;;20.5;57
68628;BME280;55611;48.602;9.490;2022-09-09T06:29:04;96610;;;20.6;57
68628;BME280;55611;48.602;9.490;2022-09-09T06:31:35;96600;;;20.7;57
68628;BME280;55611;48.602;9.490;2022-09-09T06:34:06;96600;;;20.8;57
68628;BME280;55611;48.602;9.490;2022-09-09T06:36:37;96610;;;20.9;57
68628;BME280;55611;48.602;9.490;2022-09-09T06:39:07;96610;;;20.9;56.5
68628;BME280;55611;48.602;9.490;2022-09-09T06:41:37;96600;;;21;56.5
68628;BME280;55611;48.602;9.490;2022-09-09T06:44:08;96600;;;21;56.5
68628;BME280;55611;48.602;9.490;2022-09-09T06:46:38;96600;;;21;56.5
68628;BME280;55611;48.602;9.490;2022-09-09T06:49:09;96600;;;21;56.5
68628;BME280;55611;48.602;9.490;2022-09-09T06:51:39;96610;;;21;56.5
68628;BME280;55611;48.602;9.490;2022-09-09T06:54:10;96600;;;21;56.5
68628;BME280;55611;48.602;9.490;2022-09-09T06:56:40;96610;;;21;56.5
68628;BME280;55611;48.602;9.490;2022-09-09T06:59:11;96620;;;21;56.5
68628;BME280;55611;48.602;9.490;2022-09-09T07:01:42;96610;;;21;56.5
68628;BME280;55611;48.602;9.490;2022-09-09T07:04:12;96610;;;21.1;56.5
68628;BME280;55611;48.602;9.490;2022-09-09T07:06:43;96610;;;21.1;56.5
68628;BME280;55611;48.602;9.490;2022-09-09T07:09:13;96610;;;21.2;56.5
68628;BME280;55611;48.602;9.490;2022-09-09T07:11:44;96620;;;21.3;56.5
68628;BME280;55611;48.602;9.490;2022-09-09T07:14:14;96610;;;21.3;56.5
68628;BME280;55611;48.602;9.490;2022-09-09T07:16:44;96620;;;21.4;56.5
68628;BME280;55611;48.602;9.490;2022-09-09T07:19:15;96620;;;21.3;56.5
68628;BME280;55611;48.602;9.490;2022-09-09T07:21:45;96620;;;21.3;56.5
68628;BME280;55611;48.602;9.490;2022-09-09T07:24:16;96620;;;21.3;56.5
68628;BME280;55611;48.602;9.490;2022-09-09T07:26:46;96620;;;21.2;56.5
68628;BME280;55611;48.602;9.490;2022-09-09T07:29:17;96620;;;21.3;56.5
68628;BME280;55611;48.602;9.490;2022-09-09T07:31:47;96610;;;21.3;56.5
68628;BME280;55611;48.602;9.490;2022-09-09T07:34:18;96620;;;21.3;56.5
68628;BME280;55611;48.602;9.490;2022-09-09T07:36:48;96620;;;21.3;56.5
68628;BME280;55611;48.602;9.490;2022-09-09T07:39:19;96620;;;21.4;56.5
68628;BME280;55611;48.602;9.490;2022-09-09T07:41:49;96620;;;21.5;56.5
68628;BME280;55611;48.602;9.490;2022-09-09T07:44:21;96620;;;21.6;56.5
68628;BME280;55611;48.602;9.490;2022-09-09T07:46:50;96620;;;21.6;56.5
68628;BME280;55611;48.602;9.490;2022-09-09T07:49:21;96620;;;21.6;56.5
68628;BME280;55611;48.602;9.490;2022-09-09T07:51:51;96630;;;21.7;56.5
68628;BME280;55611;48.602;9.490;2022-09-09T07:54:22;96630;;;21.9;56.5
68628;BME280;55611;48.602;9.490;2022-09-09T07:56:53;96640;;;22.1;56.5
68628;BME280;55611;48.602;9.490;2022-09-09T07:59:23;96650;;;22.1;56.5
68628;BME280;55611;48.602;9.490;2022-09-09T08:01:53;96660;;;22.1;56.5
68628;BME280;55611;48.602;9.490;2022-09-09T08:04:24;96660;;;22.1;56.5
68628;BME280;55611;48.602;9.490;2022-09-09T08:06:56;96660;;;22.1;56.5
68628;BME280;55611;48.602;9.490;2022-09-09T08:09:25;96660;;;22.1;56
68628;BME280;55611;48.602;9.490;2022-09-09T08:11:56;96660;;;22.2;56.5
68628;BME280;55611;48.602;9.490;2022-09-09T08:14:26;96660;;;22.2;56.5
68628;BME280;55611;48.602;9.490;2022-09-09T08:16:56;96660;;;22.2;56.5
68628;BME280;55611;48.602;9.490;2022-09-09T08:19:27;96660;;;22.2;56.5
68628;BME280;55611;48.602;9.490;2022-09-09T08:21:57;96660;;;22.3;56.5
68628;BME280;55611;48.602;9.490;2022-09-09T08:24:28;96660;;;22.5;56.5
68628;BME280;55611;48.602;9.490;2022-09-09T08:26:59;96660;;;22.5;56.5
68628;BME280;55611;48.602;9.490;2022-09-09T08:29:29;96660;;;22.6;56.5
68628;BME280;55611;48.602;9.490;2022-09-09T08:32:00;96660;;;22.7;56.5
68628;BME280;55611;48.602;9.490;2022-09-09T08:34:30;96650;;;22.8;56.5
68628;BME280;55611;48.602;9.490;2022-09-09T08:37:01;96660;;;22.8;56.5
68628;BME280;55611;48.602;9.490;2022-09-09T08:39:31;96660;;;22.8;56.5
68628;BME280;55611;48.602;9.490;2022-09-09T08:43:05;96660;;;22.8;56
68628;BME280;55611;48.602;9.490;2022-09-09T08:44:39;96660;;;22.9;56
68628;BME280;55611;48.602;9.490;2022-09-09T08:47:12;96660;;;22.8;56
68628;BME280;55611;48.602;9.490;2022-09-09T08:49:38;96660;;;22.9;56
68628;BME280;55611;48.602;9.490;2022-09-09T08:52:04;96660;;;22.9;56
68628;BME280;55611;48.602;9.490;2022-09-09T08:54:34;96660;;;23;56
68628;BME280;55611;48.602;9.490;2022-09-09T08:57:05;96670;;;23;56.5
68628;BME280;55611;48.602;9.490;2022-09-09T08:59:35;96670;;;23.2;56.5
68628;BME280;55611;48.602;9.490;2022-09-09T09:02:23;96660;;;23.4;56.5
68628;BME280;55611;48.602;9.490;2022-09-09T09:04:55;96670;;;23.5;56.5
68628;BME280;55611;48.602;9.490;2022-09-09T09:07:11;96660;;;23.5;56.5
68628;BME280;55611;48.602;9.490;2022-09-09T09:09:42;96660;;;23.5;56.5
68628;BME280;55611;48.602;9.490;2022-09-09T09:12:14;96660;;;23.5;56
68628;BME280;55611;48.602;9.490;2022-09-09T09:14:38;96660;;;23.5;56
68628;BME280;55611;48.602;9.490;2022-09-09T09:17:10;96650;;;23.5;56
68628;BME280;55611;48.602;9.490;2022-09-09T09:19:40;96650;;;23.6;56
68628;BME280;55611;48.602;9.490;2022-09-09T09:22:14;96650;;;23.6;56
68628;BME280;55611;48.602;9.490;2022-09-09T09:24:42;96650;;;23.5;56
68628;BME280;55611;48.602;9.490;2022-09-09T09:27:12;96650;;;23.5;56
68628;BME280;55611;48.602;9.490;2022-09-09T09:29:42;96650;;;23.7;56
68628;BME280;55611;48.602;9.490;2022-09-09T09:32:13;96650;;;23.8;56
68628;BME280;55611;48.602;9.490;2022-09-09T09:34:47;96650;;;23.9;56
68628;BME280;55611;48.602;9.490;2022-09-09T09:37:17;96650;;;24;56
68628;BME280;55611;48.602;9.490;2022-09-09T09:39:43;96640;;;24.1;56
68628;BME280;55611;48.602;9.490;2022-09-09T09:42:15;96650;;;24.2;56
68628;BME280;55611;48.602;9.490;2022-09-09T09:44:45;96650;;;24.2;56
68628;BME280;55611;48.602;9.490;2022-09-09T09:47:17;96640;;;24.1;55.5
68628;BME280;55611;48.602;9.490;2022-09-09T09:50:01;96650;;;23.7;55.5
68628;BME280;55611;48.602;9.490;2022-09-09T09:52:17;96640;;;23.5;55.5
68628;BME280;55611;48.602;9.490;2022-09-09T09:54:47;96650;;;23.3;55.5
68628;BME280;55611;48.602;9.490;2022-09-09T09:57:17;96650;;;23.2;55.5
68628;BME280;55611;48.602;9.490;2022-09-09T09:59:48;96640;;;23.3;55.5
68628;BME280;55611;48.602;9.490;2022-09-09T10:02:19;96650;;;23.2;56
68628;BME280;55611;48.602;9.490;2022-09-09T10:04:49;96640;;;23.1;56
68628;BME280;55611;48.602;9.490;2022-09-09T10:07:20;96640;;;23.3;56
68628;BME280;55611;48.602;9.490;2022-09-09T10:09:54;96630;;;23.5;56
68628;BME280;55611;48.602;9.490;2022-09-09T10:12:39;96620;;;23.6;56
68628;BME280;55611;48.602;9.490;2022-09-09T10:14:55;96620;;;23.7;56
68628;BME280;55611;48.602;9.490;2022-09-09T10:17:26;96630;;;23.9;56
68628;BME280;55611;48.602;9.490;2022-09-09T10:20:59;96620;;;23.9;56
68628;BME280;55611;48.602;9.490;2022-09-09T10:22:25;96620;;;24;56
68628;BME280;55611;48.602;9.490;2022-09-09T10:24:58;96630;;;24.1;56
68628;BME280;55611;48.602;9.490;2022-09-09T10:27:27;96630;;;24.3;56
68628;BME280;55611;48.602;9.490;2022-09-09T10:29:58;96620;;;24.3;56
68628;BME280;55611;48.602;9.490;2022-09-09T10:32:30;96620;;;24.2;55.5
68628;BME280;55611;48.602;9.490;2022-09-09T10:34:56;96630;;;24.2;55.5
68628;BME280;55611;48.602;9.490;2022-09-09T10:37:29;96620;;;24.3;55.5
68628;BME280;55611;48.602;9.490;2022-09-09T10:40:01;96630;;;24.4;55.5
68628;BME280;55611;48.602;9.490;2022-09-09T10:42:27;96620;;;24.3;55.5
68628;BME280;55611;48.602;9.490;2022-09-09T10:47:35;96620;;;24.2;55.5
68628;BME280;55611;48.602;9.490;2022-09-09T10:53:02;96610;;;24.1;55.5
68628;BME280;55611;48.602;9.490;2022-09-09T10:55:00;96620;;;24;55.5
68628;BME280;55611;48.602;9.490;2022-09-09T10:57:33;96620;;;24.1;55.5
68628;BME280;55611;48.602;9.490;2022-09-09T11:00:02;96610;;;24.2;55.5
68628;BME280;55611;48.602;9.490;2022-09-09T11:02:32;96620;;;24.2;55.5
68628;BME280;55611;48.602;9.490;2022-09-09T11:05:03;96620;;;24.3;55.5
68628;BME280;55611;48.602;9.490;2022-09-09T11:07:35;96610;;;24.3;55.5
68628;BME280;55611;48.602;9.490;2022-09-09T11:10:04;96620;;;24.3;55.5
68628;BME280;55611;48.602;9.490;2022-09-09T11:12:33;96610;;;24.2;55.5
68628;BME280;55611;48.602;9.490;2022-09-09T11:15:08;96610;;;24.2;55
68628;BME280;55611;48.602;9.490;2022-09-09T11:17:36;96610;;;24;55.5
68628;BME280;55611;48.602;9.490;2022-09-09T11:20:05;96600;;;24.1;55
68628;BME280;55611;48.602;9.490;2022-09-09T11:22:36;96600;;;24.2;55
68628;BME280;55611;48.602;9.490;2022-09-09T11:25:08;96590;;;24.1;55
68628;BME280;55611;48.602;9.490;2022-09-09T11:27:49;96580;;;24.1;55
68628;BME280;55611;48.602;9.490;2022-09-09T11:32:43;96590;;;24.4;55
68628;BME280;55611;48.602;9.490;2022-09-09T11:35:18;96580;;;24.5;55
68628;BME280;55611;48.602;9.490;2022-09-09T11:37:42;96590;;;24.6;55
68628;BME280;55611;48.602;9.490;2022-09-09T11:40:14;96600;;;24.6;55
68628;BME280;55611;48.602;9.490;2022-09-09T11:42:39;96590;;;24.7;55
68628;BME280;55611;48.602;9.490;2022-09-09T11:45:10;96600;;;24.6;55
68628;BME280;55611;48.602;9.490;2022-09-09T11:47:40;96590;;;24.6;55
68628;BME280;55611;48.602;9.490;2022-09-09T11:52:42;96580;;;25.1;55
68628;BME280;55611;48.602;9.490;2022-09-09T11:55:24;96610;;;25.2;55
68628;BME280;55611;48.602;9.490;2022-09-09T11:57:42;96630;;;24.7;55
68628;BME280;55611;48.602;9.490;2022-09-09T12:00:39;96630;;;23.9;55
68628;BME280;55611;48.602;9.490;2022-09-09T12:02:48;96630;;;23.4;55
68628;BME280;55611;48.602;9.490;2022-09-09T12:05:13;96650;;;23;55
68628;BME280;55611;48.602;9.490;2022-09-09T12:07:49;96660;;;22.8;55
68628;BME280;55611;48.602;9.490;2022-09-09T12:10:52;96660;;;22.8;55
68628;BME280;55611;48.602;9.490;2022-09-09T12:12:45;96660;;;22.8;55
68628;BME280;55611;48.602;9.490;2022-09-09T12:15:18;96660;;;22.7;55
68628;BME280;55611;48.602;9.490;2022-09-09T12:17:47;96650;;;22.8;55
68628;BME280;55611;48.602;9.490;2022-09-09T12:20:18;96650;;;23;55.5
68628;BME280;55611;48.602;9.490;2022-09-09T12:22:52;96640;;;23.2;55.5
68628;BME280;55611;48.602;9.490;2022-09-09T12:25:23;96640;;;23.2;55
68628;BME280;55611;48.602;9.490;2022-09-09T12:27:59;96630;;;23.1;55
68628;BME280;55611;48.602;9.490;2022-09-09T12:30:19;96630;;;22.9;55
68628;BME280;55611;48.602;9.490;2022-09-09T12:32:58;96630;;;22.8;55
68628;BME280;55611;48.602;9.490;2022-09-09T12:35:21;96620;;;22.9;55
68628;BME280;55611;48.602;9.490;2022-09-09T12:37:52;96620;;;23.2;54.5
68628;BME280;55611;48.602;9.490;2022-09-09T12:40:25;96610;;;23.3;54.5
68628;BME280;55611;48.602;9.490;2022-09-09T12:42:51;96610;;;23.5;54.5
68628;BME280;55611;48.602;9.490;2022-09-09T12:45:22;96600;;;23.6;54.5
68628;BME280;55611;48.602;9.490;2022-09-09T12:47:56;96600;;;23.7;54.5
68628;BME280;55611;48.602;9.490;2022-09-09T12:50:24;96600;;;23.9;54.5
68628;BME280;55611;48.602;9.490;2022-09-09T12:52:54;96600;;;24;54.5
68628;BME280;55611;48.602;9.490;2022-09-09T12:55:24;96590;;;24;54.5
68628;BME280;55611;48.602;9.490;2022-09-09T12:57:54;96600;;;24;54.5
68628;BME280;55611;48.602;9.490;2022-09-09T13:00:25;96590;;;24.1;54
68628;BME280;55611;48.602;9.490;2022-09-09T13:02:56;96600;;;24.1;54
68628;BME280;55611;48.602;9.490;2022-09-09T13:05:27;96590;;;24.1;54
68628;BME280;55611;48.602;9.490;2022-09-09T13:08:04;96590;;;24.2;54
68628;BME280;55611;48.602;9.490;2022-09-09T13:10:27;96590;;;24.4;54
68628;BME280;55611;48.602;9.490;2022-09-09T13:12:57;96590;;;24.6;54
68628;BME280;55611;48.602;9.490;2022-09-09T13:15:28;96590;;;24.7;54
68628;BME280;55611;48.602;9.490;2022-09-09T13:17:59;96590;;;24.7;53.5
68628;BME280;55611;48.602;9.490;2022-09-09T13:20:29;96580;;;24.8;53.5
68628;BME280;55611;48.602;9.490;2022-09-09T13:22:59;96580;;;24.9;53.5
68628;BME280;55611;48.602;9.490;2022-09-09T13:25:30;96590;;;24.7;53.5
68628;BME280;55611;48.602;9.490;2022-09-09T13:28:03;96580;;;24.4;53.5
68628;BME280;55611;48.602;9.490;2022-09-09T13:30:34;96580;;;24.2;54
68628;BME280;55611;48.602;9.490;2022-09-09T13:33:02;96580;;;24.3;54
68628;BME280;55611;48.602;9.490;2022-09-09T13:35:32;96570;;;24.5;54
68628;BME280;55611;48.602;9.490;2022-09-09T13:38:06;96570;;;24.5;54
68628;BME280;55611;48.602;9.490;2022-09-09T13:40:33;96570;;;24.7;54
68628;BME280;55611;48.602;9.490;2022-09-09T13:43:03;96570;;;24.7;53.5
68628;BME280;55611;48.602;9.490;2022-09-09T13:45:34;96570;;;24.7;53.5
68628;BME280;55611;48.602;9.490;2022-09-09T13:48:09;96570;;;24.6;53.5
68628;BME280;55611;48.602;9.490;2022-09-09T13:50:35;96560;;;24.5;53.5
68628;BME280;55611;48.602;9.490;2022-09-09T13:53:06;96540;;;24.6;53.5
68628;BME280;55611;48.602;9.490;2022-09-09T13:55:36;96580;;;24.7;53.5
68628;BME280;55611;48.602;9.490;2022-09-09T13:58:14;96560;;;24.8;53.5
68628;BME280;55611;48.602;9.490;2022-09-09T14:00:37;96560;;;24.7;53.5
68628;BME280;55611;48.602;9.490;2022-09-09T14:03:08;96560;;;24.7;53.5
68628;BME280;55611;48.602;9.490;2022-09-09T14:08:09;96570;;;24.7;53.5
68628;BME280;55611;48.602;9.490;2022-09-09T14:10:39;96560;;;24.7;53.5
68628;BME280;55611;48.602;9.490;2022-09-09T14:13:10;96560;;;24.8;53.5
68628;BME280;55611;48.602;9.490;2022-09-09T14:15:40;96560;;;24.7;53.5
68628;BME280;55611;48.602;9.490;2022-09-09T14:23:12;96560;;;24.6;53.5
68628;BME280;55611;48.602;9.490;2022-09-09T14:25:42;96560;;;24.5;53.5
68628;BME280;55611;48.602;9.490;2022-09-09T14:28:13;96580;;;24.3;53.5
68628;BME280;55611;48.602;9.490;2022-09-09T14:30:43;96570;;;24.3;53.5
68628;BME280;55611;48.602;9.490;2022-09-09T14:33:15;96570;;;24.3;53
68628;BME280;55611;48.602;9.490;2022-09-09T14:35:44;96560;;;24.3;53.5
68628;BME280;55611;48.602;9.490;2022-09-09T14:38:15;96560;;;24.3;53
68628;BME280;55611;48.602;9.490;2022-09-09T14:40:45;96560;;;24.3;53
68628;BME280;55611;48.602;9.490;2022-09-09T14:43:16;96560;;;24.5;53
68628;BME280;55611;48.602;9.490;2022-09-09T14:45:46;96550;;;24.5;53
68628;BME280;55611;48.602;9.490;2022-09-09T14:48:17;96560;;;24.5;53
68628;BME280;55611;48.602;9.490;2022-09-09T14:50:47;96560;;;24.4;53
68628;BME280;55611;48.602;9.490;2022-09-09T14:53:18;96560;;;24.5;53